KBEH/BEH METAR and TAF weather

Enter ICAO airport designator
Station Type Date Time Source
KBEH METAR 2019/02/23 23:29 UTC NOAA

KBEH 232329Z AUTO 11012KT 3SM BR OVC007 04/02 A2971 RMK AO2 T00390022


Station Type Date Time Source
KBEH Decoded METAR 2019/02/23 23:29 UTC NOAA

SOUTHWEST MICHIGAN REGIONAL, MI, United States (KBEH) 42-08N 86-25W 191M
Feb 23, 2019 - 06:29 PM EST / 2019.02.23 2329 UTC
Wind: from the ESE (110 degrees) at 14 MPH (12 KT):0
Visibility: 3 mile(s):0
Sky conditions: overcast
Weather: mist
Temperature: 39.0 F (3.9 C)
Dew Point: 36.0 F (2.2 C)
Relative Humidity: 88%
Pressure (altimeter): 29.71 in. Hg (1006 hPa)
ob: KBEH 232329Z AUTO 11012KT 3SM BR OVC007 04/02 A2971 RMK AO2 T00390022
cycle: 23

Station Type Date Time Source
KBEH TAF UTC NOAA

Error!


Example: see airport list